Time;durP1;ratioP1;P1;durP2;ratioP2;P2;SDS_P1;SDS_P2;PMS_P1;PMS_P2;Temp;Humidity;BMP_temperature;BMP_pressure;BME280_temperature;BME280_humidity;BME280_pressure;Samples;Min_cycle;Max_cycle;Signal;HPM_P1;HPM_P2
2021/12/30 00:00:20;;;;;;;47.83;25.77;;;;;;;7.02;72.13;101263.09;5032577;28;20046;-75
2021/12/30 00:02:47;;;;;;;47.60;27.63;;;;;;;7.00;72.00;101259.69;5034160;28;20076;-76
2021/12/30 00:05:14;;;;;;;45.67;26.90;;;;;;;6.97;72.11;101258.91;5035914;28;20499;-75
2021/12/30 00:07:42;;;;;;;41.13;25.40;;;;;;;6.93;71.89;101262.53;5035809;28;20119;-76
2021/12/30 00:10:10;;;;;;;45.53;27.38;;;;;;;6.90;71.84;101273.09;5035610;28;20053;-77
2021/12/30 00:12:37;;;;;;;44.85;25.58;;;;;;;6.90;71.74;101275.69;5035620;28;20053;-76
2021/12/30 00:15:07;;;;;;;49.13;27.75;;;;;;;6.90;71.74;101270.47;5035595;28;20400;-75
2021/12/30 00:17:34;;;;;;;48.40;25.70;;;;;;;6.90;71.68;101284.38;5035580;28;20092;-77
2021/12/30 00:20:07;;;;;;;48.30;27.27;;;;;;;6.90;71.51;101286.13;5034513;28;20049;-75
2021/12/30 00:22:35;;;;;;;44.78;24.70;;;;;;;6.88;71.45;101273.13;5035729;28;20103;-76
2021/12/30 00:25:02;;;;;;;46.67;26.50;;;;;;;6.83;71.60;101260.25;5035557;28;20404;-75
2021/12/30 00:27:29;;;;;;;44.78;23.88;;;;;;;6.82;71.65;101255.09;5035457;28;20053;-78
2021/12/30 00:29:55;;;;;;;47.40;25.48;;;;;;;6.82;71.51;101265.53;5035239;28;20495;-76
2021/12/30 00:32:22;;;;;;;47.83;28.23;;;;;;;6.79;71.37;101265.59;5035565;28;20042;-76
2021/12/30 00:34:49;;;;;;;44.45;26.15;;;;;;;6.74;71.54;101268.34;5035084;28;20053;-76
2021/12/30 00:37:15;;;;;;;46.17;24.35;;;;;;;6.64;71.21;101265.19;5034211;28;20108;-75
2021/12/30 00:39:42;;;;;;;48.20;26.25;;;;;;;6.63;71.63;101255.66;5035287;28;20096;-76
2021/12/30 00:42:09;;;;;;;47.30;25.85;;;;;;;6.67;71.35;101252.06;5035155;28;20053;-76
2021/12/30 00:44:36;;;;;;;44.67;26.58;;;;;;;6.69;71.26;101257.22;5035352;28;20100;-76
2021/12/30 00:47:03;;;;;;;48.63;25.73;;;;;;;6.68;71.08;101263.34;5035260;28;20049;-76
2021/12/30 00:49:29;;;;;;;50.70;27.35;;;;;;;6.70;71.25;101269.34;5035134;28;20450;-75
2021/12/30 00:51:56;;;;;;;46.50;26.50;;;;;;;6.65;71.40;101269.53;5034001;28;20042;-75
2021/12/30 00:54:23;;;;;;;44.15;25.15;;;;;;;6.64;71.18;101264.34;5034978;28;20049;-76
2021/12/30 00:56:50;;;;;;;50.72;28.70;;;;;;;6.67;71.13;101264.25;5034702;28;20049;-76
2021/12/30 00:59:17;;;;;;;43.42;23.95;;;;;;;6.62;71.20;101261.78;5034905;28;20069;-75
2021/12/30 01:01:44;;;;;;;47.67;25.85;;;;;;;6.63;70.96;101267.88;5034947;28;20045;-76
2021/12/30 01:04:11;;;;;;;44.03;24.27;;;;;;;6.60;71.28;101261.00;5034502;28;20052;-76
2021/12/30 01:06:38;;;;;;;43.10;25.33;;;;;;;6.58;71.16;101259.31;5033752;28;20042;-75
2021/12/30 01:09:05;;;;;;;47.45;25.95;;;;;;;6.56;71.19;101274.16;5034408;28;20057;-76
2021/12/30 01:11:32;;;;;;;43.22;25.35;;;;;;;6.54;70.97;101293.31;5034677;28;20414;-81
2021/12/30 01:14:14;;;;;;;38.65;22.70;;;;;;;6.49;70.87;101276.13;5034721;28;20450;-76
2021/12/30 01:16:44;;;;;;;41.58;23.15;;;;;;;6.48;70.85;101277.00;5034613;28;20080;-76
2021/12/30 01:21:50;;;;;;;36.88;21.55;;;;;;;6.43;70.68;101279.75;5034366;28;20042;-78
2021/12/30 01:24:17;;;;;;;41.13;24.23;;;;;;;6.47;70.81;101280.53;5033606;28;20396;-76
2021/12/30 01:26:43;;;;;;;42.88;25.50;;;;;;;6.51;70.49;101277.78;5034372;28;20115;-76
2021/12/30 01:29:10;;;;;;;46.08;25.65;;;;;;;6.55;70.48;101278.50;5034261;28;20077;-76
2021/12/30 01:31:37;;;;;;;44.70;26.10;;;;;;;6.51;70.72;101259.53;5034241;28;20046;-77
2021/12/30 01:34:19;;;;;;;47.10;26.80;;;;;;;6.58;70.50;101259.31;5034163;28;20403;-76
2021/12/30 01:36:45;;;;;;;43.15;23.65;;;;;;;6.59;70.67;101276.66;5033993;28;20075;-76
2021/12/30 01:39:13;;;;;;;44.25;24.85;;;;;;;6.64;70.71;101269.53;5034066;28;20049;-76
2021/12/30 01:41:41;;;;;;;41.67;23.75;;;;;;;6.65;70.79;101279.09;5033042;28;20502;-76
2021/12/30 01:44:07;;;;;;;45.88;25.63;;;;;;;6.69;70.85;101280.69;5033906;28;20045;-76
2021/12/30 01:46:39;;;;;;;47.42;26.45;;;;;;;6.75;71.02;101300.53;5034076;28;20053;-76
2021/12/30 01:49:07;;;;;;;49.67;26.05;;;;;;;6.78;71.12;101314.31;5033844;28;20056;-76
2021/12/30 01:51:34;;;;;;;48.72;26.67;;;;;;;6.76;71.47;101304.84;5034026;28;20049;-76
2021/12/30 01:54:01;;;;;;;44.53;25.80;;;;;;;6.79;71.43;101289.94;5033803;28;20091;-75
2021/12/30 01:56:28;;;;;;;46.30;26.38;;;;;;;6.82;71.64;101291.59;5033840;28;20055;-76
2021/12/30 01:58:55;;;;;;;45.55;25.65;;;;;;;6.79;71.77;101292.56;5032586;28;20045;-76
2021/12/30 02:01:23;;;;;;;50.22;27.45;;;;;;;6.85;71.95;101296.72;5033585;28;20046;-76
2021/12/30 02:03:51;;;;;;;52.20;28.30;;;;;;;6.86;72.12;101311.47;5033590;28;20045;-75
2021/12/30 02:06:18;;;;;;;50.38;26.63;;;;;;;6.73;72.51;101325.78;5033677;28;20045;-76
2021/12/30 02:08:44;;;;;;;47.63;26.08;;;;;;;6.72;72.75;101326.69;5033579;28;20053;-75
2021/12/30 02:11:11;;;;;;;49.03;27.15;;;;;;;6.83;72.77;101319.38;5033823;28;20052;-76
2021/12/30 02:13:37;;;;;;;51.40;27.40;;;;;;;6.87;72.83;101310.56;5033412;28;20041;-76
2021/12/30 02:16:05;;;;;;;54.78;29.67;;;;;;;6.82;73.21;101304.66;5031803;28;20104;-76
2021/12/30 02:18:32;;;;;;;58.95;30.10;;;;;;;6.86;73.35;101303.63;5033315;28;20479;-76
2021/12/30 02:21:01;;;;;;;54.25;29.20;;;;;;;6.79;73.78;101296.91;5033169;28;20075;-76
2021/12/30 02:23:30;;;;;;;53.60;28.85;;;;;;;6.89;73.99;101306.13;5033235;28;20052;-75
2021/12/30 02:26:03;;;;;;;59.50;29.85;;;;;;;6.89;74.02;101334.00;5033109;28;20092;-75
2021/12/30 02:28:32;;;;;;;58.20;30.05;;;;;;;6.83;74.32;101337.63;5033048;28;20091;-75
2021/12/30 02:31:01;;;;;;;57.55;29.65;;;;;;;6.84;74.57;101329.78;5033007;28;20053;-76
2021/12/30 02:33:28;;;;;;;71.97;32.50;;;;;;;6.86;74.60;101327.13;5032016;28;20045;-76
2021/12/30 02:35:55;;;;;;;58.15;30.83;;;;;;;6.84;75.24;101334.13;5032936;28;20500;-77
2021/12/30 02:38:23;;;;;;;64.03;30.10;;;;;;;6.84;75.14;101323.69;5033045;28;20042;-76
2021/12/30 02:40:54;;;;;;;64.30;28.65;;;;;;;6.81;75.22;101327.25;5032816;28;20053;-76
2021/12/30 02:43:24;;;;;;;56.95;28.25;;;;;;;6.73;75.55;101321.44;5033016;28;20100;-75
2021/12/30 02:45:52;;;;;;;59.78;27.70;;;;;;;6.70;75.67;101335.44;5032739;28;20046;-75
2021/12/30 02:48:24;;;;;;;55.17;27.33;;;;;;;6.69;76.03;101349.38;5032031;28;20045;-75
2021/12/30 02:50:54;;;;;;;54.30;28.95;;;;;;;6.69;76.06;101340.66;5032666;28;20049;-76
2021/12/30 02:53:21;;;;;;;55.10;29.60;;;;;;;6.78;76.02;101332.59;5032917;28;20049;-82
2021/12/30 02:55:49;;;;;;;59.65;28.40;;;;;;;6.78;75.87;101358.66;5032821;28;20488;-75
2021/12/30 02:58:15;;;;;;;55.95;29.40;;;;;;;6.69;76.32;101382.41;5032697;28;20049;-75
2021/12/30 03:00:43;;;;;;;55.08;29.23;;;;;;;6.68;76.48;101376.34;5032588;28;20499;-75
2021/12/30 03:03:19;;;;;;;60.15;28.65;;;;;;;6.68;76.53;101386.78;5032524;28;20415;-76
2021/12/30 03:05:47;;;;;;;57.63;30.17;;;;;;;6.67;76.59;101385.06;5031728;28;20053;-75
2021/12/30 03:08:15;;;;;;;60.53;27.80;;;;;;;6.65;76.25;101371.22;5032503;28;20053;-75
2021/12/30 03:10:42;;;;;;;68.03;30.15;;;;;;;6.59;76.77;101370.53;5032637;28;20107;-75
2021/12/30 03:13:10;;;;;;;59.08;27.02;;;;;;;6.52;76.75;101383.75;5032611;28;20123;-77
2021/12/30 03:15:37;;;;;;;51.67;27.58;;;;;;;6.56;76.86;101384.53;5032675;28;20049;-75
2021/12/30 03:18:04;;;;;;;59.08;28.20;;;;;;;6.54;76.85;101376.75;5032529;28;20105;-76
2021/12/30 03:20:33;;;;;;;54.40;27.33;;;;;;;6.59;76.99;101374.03;5032318;28;20100;-77
2021/12/30 03:23:00;;;;;;;50.75;25.45;;;;;;;6.54;76.73;101376.75;5031448;28;20514;-76
2021/12/30 03:25:27;;;;;;;65.40;27.88;;;;;;;6.50;76.78;101376.88;5032310;28;20111;-76
2021/12/30 03:27:53;;;;;;;61.25;27.75;;;;;;;6.61;76.90;101384.41;5032255;28;20041;-76
2021/12/30 03:30:20;;;;;;;54.05;26.17;;;;;;;6.65;76.81;101386.00;5032483;28;20053;-82
2021/12/30 03:32:47;;;;;;;59.70;26.52;;;;;;;6.55;76.69;101403.66;5032098;28;20051;-75
2021/12/30 03:35:14;;;;;;;46.00;25.90;;;;;;;6.62;77.12;101402.59;5032211;28;20103;-76
2021/12/30 03:37:40;;;;;;;51.53;26.27;;;;;;;6.67;76.64;101410.28;5032057;28;20103;-75
2021/12/30 03:40:12;;;;;;;53.50;27.02;;;;;;;6.60;77.07;101404.41;5031117;28;20053;-76
2021/12/30 03:42:39;;;;;;;62.55;25.55;;;;;;;6.60;76.62;101380.06;5032229;28;20624;-76
2021/12/30 03:45:08;;;;;;;55.40;26.95;;;;;;;6.63;76.60;101393.03;5032176;28;20100;-75
2021/12/30 03:47:39;;;;;;;47.47;24.88;;;;;;;6.64;76.75;101390.38;5032217;28;20049;-75
2021/12/30 03:50:19;;;;;;;54.38;25.48;;;;;;;6.49;76.81;101399.50;5031975;28;20057;-76
2021/12/30 03:52:52;;;;;;;51.15;25.63;;;;;;;6.53;77.25;101392.44;5031948;28;20045;-76
2021/12/30 03:55:20;;;;;;;50.47;24.75;;;;;;;6.55;76.89;101398.44;5031862;28;20484;-78
2021/12/30 03:57:49;;;;;;;42.25;24.63;;;;;;;6.48;77.26;101397.78;5031553;28;20045;-75
2021/12/30 04:00:17;;;;;;;49.15;26.92;;;;;;;6.47;77.33;101395.22;5031841;28;20458;-75
2021/12/30 04:02:44;;;;;;;55.75;26.98;;;;;;;6.52;76.94;101393.34;5031104;28;20045;-76
2021/12/30 04:05:11;;;;;;;47.97;26.60;;;;;;;6.58;77.17;101397.50;5027678;28;20128;-76
2021/12/30 04:07:38;;;;;;;58.67;28.80;;;;;;;6.67;76.94;101402.47;5028539;28;20046;-75
2021/12/30 04:10:08;;;;;;;49.28;28.08;;;;;;;6.68;77.00;101417.22;5028328;28;20062;-76
2021/12/30 04:12:36;;;;;;;53.65;28.67;;;;;;;6.70;77.01;101442.38;5028534;28;20049;-76
2021/12/30 04:15:04;;;;;;;50.15;25.58;;;;;;;6.72;77.14;101431.88;5027727;28;20115;-75
2021/12/30 04:17:30;;;;;;;48.72;27.52;;;;;;;6.73;77.09;101417.06;5028702;28;20097;-75
2021/12/30 04:19:57;;;;;;;51.08;27.27;;;;;;;6.72;76.94;101415.34;5028324;28;20141;-76
2021/12/30 04:22:24;;;;;;;69.53;28.63;;;;;;;6.66;76.94;101426.84;5028706;28;20095;-76
2021/12/30 04:24:51;;;;;;;49.33;27.55;;;;;;;6.65;77.41;101428.59;5028604;28;20053;-76
2021/12/30 04:27:18;;;;;;;58.35;31.08;;;;;;;6.61;77.27;101442.59;5028481;28;20054;-76
2021/12/30 04:29:45;;;;;;;73.95;30.15;;;;;;;6.66;76.90;101450.31;5028242;28;20132;-76
2021/12/30 04:32:12;;;;;;;62.42;29.52;;;;;;;6.59;77.21;101449.63;5027607;28;20049;-75
2021/12/30 04:34:38;;;;;;;62.17;28.33;;;;;;;6.61;77.22;101462.63;5028401;28;20045;-75
2021/12/30 04:37:05;;;;;;;57.72;29.52;;;;;;;6.70;77.56;101464.97;5027806;28;21125;-75
2021/12/30 04:39:32;;;;;;;73.20;31.48;;;;;;;6.63;76.85;101464.28;5031269;28;20511;-76
2021/12/30 04:41:59;;;;;;;56.33;28.92;;;;;;;6.62;76.96;101477.38;5031998;28;20049;-75
2021/12/30 04:44:26;;;;;;;60.10;30.30;;;;;;;6.53;77.48;101470.66;5032039;28;20045;-76
2021/12/30 04:46:52;;;;;;;59.30;29.88;;;;;;;6.61;77.54;101466.06;5030725;28;20450;-76
2021/12/30 04:49:19;;;;;;;56.63;28.23;;;;;;;6.59;77.36;101490.50;5031678;28;20045;-76
2021/12/30 04:51:46;;;;;;;60.08;27.92;;;;;;;6.46;77.58;101490.84;5031558;28;20553;-76
2021/12/30 04:54:12;;;;;;;55.13;28.92;;;;;;;6.46;77.68;101490.84;5031696;28;20046;-75
2021/12/30 04:56:39;;;;;;;62.67;29.52;;;;;;;6.45;77.57;101486.53;5031794;28;20585;-76
2021/12/30 04:59:06;;;;;;;56.90;29.95;;;;;;;6.46;77.63;101501.28;5031516;28;20112;-76
2021/12/30 05:01:32;;;;;;;57.00;29.90;;;;;;;6.46;77.98;101500.41;5031555;28;20049;-76
2021/12/30 05:03:59;;;;;;;58.40;30.08;;;;;;;6.48;77.31;101503.84;5030693;28;20045;-79
2021/12/30 05:06:26;;;;;;;59.05;28.23;;;;;;;6.48;77.93;101496.88;5031613;28;20549;-76
2021/12/30 05:08:53;;;;;;;55.45;30.10;;;;;;;6.54;77.79;101485.44;5031279;28;20045;-76
2021/12/30 05:11:19;;;;;;;58.03;31.23;;;;;;;6.56;77.73;101494.03;5031239;28;20103;-76
2021/12/30 05:13:46;;;;;;;55.25;28.45;;;;;;;6.56;77.37;101501.88;5030049;28;20092;-76
2021/12/30 05:16:15;;;;;;;57.15;30.90;;;;;;;6.62;77.66;101500.84;5031314;28;20056;-75
2021/12/30 05:18:42;;;;;;;50.70;29.15;;;;;;;6.54;77.85;101514.94;5030402;28;20478;-76
2021/12/30 05:21:09;;;;;;;53.05;27.50;;;;;;;6.46;77.79;101521.25;5031049;28;20072;-75
2021/12/30 05:23:38;;;;;;;49.88;28.23;;;;;;;6.52;77.76;101524.56;5031085;28;20053;-76
2021/12/30 05:26:05;;;;;;;58.08;29.88;;;;;;;6.47;77.28;101528.19;5031177;28;20359;-76
2021/12/30 05:28:32;;;;;;;56.03;28.60;;;;;;;6.41;78.06;101533.56;5029875;28;20099;-76
2021/12/30 05:30:58;;;;;;;59.70;27.00;;;;;;;6.42;77.76;101540.50;5030768;28;20049;-76
2021/12/30 05:33:25;;;;;;;54.78;25.85;;;;;;;6.38;77.90;101542.31;5031141;28;20467;-76
2021/12/30 05:35:52;;;;;;;48.70;26.83;;;;;;;6.37;78.22;101536.28;5029840;28;20038;-76
2021/12/30 05:38:18;;;;;;;53.83;26.98;;;;;;;6.43;77.80;101532.63;5030575;28;20095;-75
2021/12/30 05:40:45;;;;;;;42.15;24.05;;;;;;;6.42;77.54;101537.91;5030884;28;20045;-76
2021/12/30 05:43:11;;;;;;;44.40;24.67;;;;;;;6.40;77.84;101539.69;5030622;28;20084;-75
2021/12/30 05:45:40;;;;;;;40.22;23.50;;;;;;;6.35;77.84;101545.03;5030947;28;20041;-77
2021/12/30 05:48:07;;;;;;;43.65;23.75;;;;;;;6.44;77.85;101550.00;5030732;28;20049;-78
2021/12/30 05:50:35;;;;;;;41.72;23.40;;;;;;;6.38;77.81;101539.72;5029414;28;20064;-76
2021/12/30 05:53:03;;;;;;;43.42;22.92;;;;;;;6.43;77.51;101543.06;5029792;28;20073;-76
2021/12/30 05:55:30;;;;;;;38.83;21.80;;;;;;;6.46;77.24;101560.38;5030601;28;20041;-76
2021/12/30 05:57:57;;;;;;;40.42;23.85;;;;;;;6.43;77.14;101558.72;5030218;28;20049;-76
2021/12/30 06:00:28;;;;;;;40.80;23.10;;;;;;;6.41;77.64;101562.25;5030673;28;20049;-76
2021/12/30 06:02:56;;;;;;;42.17;22.00;;;;;;;6.49;77.13;101566.38;5030146;28;20054;-76
2021/12/30 06:05:22;;;;;;;39.47;22.27;;;;;;;6.52;76.83;101568.88;5030267;28;20051;-75
2021/12/30 06:07:49;;;;;;;38.08;22.23;;;;;;;6.52;77.23;101571.50;5030184;28;20458;-76
2021/12/30 06:10:16;;;;;;;46.20;22.77;;;;;;;6.52;76.77;101571.50;5029198;28;20057;-76
2021/12/30 06:12:43;;;;;;;38.97;23.55;;;;;;;6.57;76.91;101581.81;5030150;28;20092;-75
2021/12/30 06:15:11;;;;;;;47.60;22.60;;;;;;;6.47;76.85;101585.56;5030140;28;20107;-76
2021/12/30 06:17:38;;;;;;;42.50;23.38;;;;;;;6.42;77.63;101588.28;5029990;28;20099;-76
2021/12/30 06:20:08;;;;;;;38.08;22.10;;;;;;;6.51;77.08;101595.00;5029671;28;20049;-76
2021/12/30 06:22:35;;;;;;;37.85;23.50;;;;;;;6.53;77.32;101603.66;5030247;28;20459;-76
2021/12/30 06:25:03;;;;;;;41.63;22.55;;;;;;;6.52;76.99;101600.16;5030113;28;20107;-76
2021/12/30 06:27:30;;;;;;;39.90;23.88;;;;;;;6.50;76.93;101606.31;5029137;28;20455;-76
2021/12/30 06:29:57;;;;;;;38.67;21.45;;;;;;;6.43;77.10;101604.78;5029575;28;20045;-76
2021/12/30 06:32:23;;;;;;;34.88;21.33;;;;;;;6.39;77.11;101627.47;5029679;28;20127;-77
2021/12/30 06:34:50;;;;;;;36.60;20.73;;;;;;;6.37;76.99;101629.25;5029336;28;20091;-77
2021/12/30 06:37:17;;;;;;;34.38;21.40;;;;;;;6.36;77.02;101624.91;5029472;28;20057;-77
2021/12/30 06:39:44;;;;;;;38.47;22.38;;;;;;;6.31;77.35;101634.59;5029865;28;20053;-76
2021/12/30 06:42:10;;;;;;;36.88;21.35;;;;;;;6.26;77.26;101645.16;5030029;28;20053;-76
2021/12/30 06:44:37;;;;;;;36.10;20.70;;;;;;;6.23;77.23;101650.44;5029334;28;20557;-76
2021/12/30 06:47:05;;;;;;;34.72;20.58;;;;;;;6.28;77.12;101652.94;5028699;28;20049;-76
2021/12/30 06:49:38;;;;;;;34.50;20.90;;;;;;;6.24;77.29;101657.38;5029597;28;20476;-76
2021/12/30 06:52:11;;;;;;;36.88;20.25;;;;;;;6.26;76.71;101667.75;5029612;28;20054;-76
2021/12/30 06:54:39;;;;;;;32.90;17.55;;;;;;;6.16;77.29;101677.56;5029758;28;20080;-76
2021/12/30 06:57:06;;;;;;;36.65;18.20;;;;;;;6.14;77.22;101674.97;5029109;28;20054;-76
2021/12/30 06:59:35;;;;;;;32.35;18.80;;;;;;;6.14;77.50;101676.72;5029361;28;20048;-76
2021/12/30 07:02:05;;;;;;;34.25;19.13;;;;;;;6.23;76.95;101667.84;5028479;28;20045;-71
2021/12/30 07:04:32;;;;;;;40.30;18.98;;;;;;;6.28;76.67;101666.81;5029609;28;20056;-69
2021/12/30 07:06:59;;;;;;;33.63;18.75;;;;;;;6.24;76.86;101673.00;5029083;28;20049;-71
2021/12/30 07:09:25;;;;;;;34.75;19.85;;;;;;;6.23;76.94;101679.09;5034977;28;20045;-69
2021/12/30 07:11:54;;;;;;;31.10;19.85;;;;;;;6.24;76.88;101673.00;5033380;28;20442;-70
2021/12/30 07:14:22;;;;;;;29.88;19.83;;;;;;;6.28;76.90;101682.47;5030363;28;20059;-69
2021/12/30 07:16:49;;;;;;;28.58;19.33;;;;;;;6.31;76.70;101686.75;5030533;28;20172;-71
2021/12/30 07:19:16;;;;;;;27.52;18.50;;;;;;;6.24;76.95;101691.25;5030051;28;20103;-69
2021/12/30 07:21:43;;;;;;;28.70;18.38;;;;;;;6.27;76.70;101682.50;5030986;28;20639;-71
2021/12/30 07:24:10;;;;;;;29.50;17.83;;;;;;;6.34;76.70;101677.09;5029343;28;20045;-69
2021/12/30 07:26:37;;;;;;;27.50;17.38;;;;;;;6.36;76.19;101682.28;5029144;28;20546;-69
2021/12/30 07:29:04;;;;;;;28.90;16.50;;;;;;;6.28;76.89;101690.28;5028850;28;20466;-69
2021/12/30 07:31:32;;;;;;;28.48;17.45;;;;;;;6.30;76.61;101695.47;5028759;28;20107;-69
2021/12/30 07:33:59;;;;;;;31.00;17.65;;;;;;;6.29;76.43;101712.00;5027899;28;20056;-68
2021/12/30 07:36:25;;;;;;;29.45;18.55;;;;;;;6.28;76.27;101715.50;5028686;28;20061;-68
2021/12/30 07:38:52;;;;;;;27.42;17.58;;;;;;;6.29;76.39;101725.03;5028721;28;20041;-68
2021/12/30 07:41:19;;;;;;;27.77;17.42;;;;;;;6.27;76.21;101717.25;5029009;28;20095;-68
2021/12/30 07:43:45;;;;;;;30.80;17.80;;;;;;;6.15;76.58;101722.75;5028724;28;20053;-68
2021/12/30 07:46:12;;;;;;;28.98;16.95;;;;;;;6.24;76.34;101729.50;5029050;28;20053;-67
2021/12/30 07:48:39;;;;;;;27.75;16.63;;;;;;;6.27;76.18;101745.94;5028623;28;20050;-68
2021/12/30 07:51:06;;;;;;;37.88;16.90;;;;;;;6.26;75.94;101764.19;5027422;28;20111;-68
2021/12/30 07:53:33;;;;;;;29.15;17.27;;;;;;;6.15;76.36;101754.00;5028733;28;20487;-68
2021/12/30 07:56:02;;;;;;;30.58;18.55;;;;;;;6.28;76.03;101757.19;5028854;28;20045;-68
2021/12/30 07:58:29;;;;;;;36.72;17.15;;;;;;;6.26;75.93;101759.84;5030395;28;20878;-68
2021/12/30 08:00:56;;;;;;;27.38;17.20;;;;;;;6.30;76.04;101774.53;5028346;28;20447;-68
2021/12/30 08:03:24;;;;;;;27.13;17.52;;;;;;;6.36;76.04;101773.50;5028534;28;20041;-68
2021/12/30 08:05:51;;;;;;;33.35;20.05;;;;;;;6.37;75.88;101773.50;5027571;28;20092;-68
2021/12/30 08:08:18;;;;;;;27.23;18.05;;;;;;;6.30;76.37;101776.28;5028452;28;20061;-68
2021/12/30 08:10:45;;;;;;;29.52;18.83;;;;;;;6.33;76.37;101777.03;5028447;28;20053;-68
2021/12/30 08:13:12;;;;;;;31.13;18.23;;;;;;;6.40;75.92;101785.59;5029610;28;20049;-68
2021/12/30 08:15:39;;;;;;;30.77;16.70;;;;;;;6.36;76.08;101797.84;5032459;28;20049;-68
2021/12/30 08:18:05;;;;;;;33.67;17.70;;;;;;;6.33;76.29;101790.09;5032149;28;20499;-68
2021/12/30 08:20:32;;;;;;;30.40;17.65;;;;;;;6.37;76.25;101786.53;5031977;28;20546;-68
2021/12/30 08:22:59;;;;;;;32.55;18.23;;;;;;;6.47;76.15;101786.31;5044015;28;20090;-69
2021/12/30 08:25:25;;;;;;;30.15;17.73;;;;;;;6.43;76.05;101788.13;5051991;28;20084;-68
2021/12/30 08:27:52;;;;;;;28.95;18.95;;;;;;;6.33;76.25;101792.69;5051578;28;20053;-69
2021/12/30 08:30:20;;;;;;;28.33;17.33;;;;;;;6.37;76.47;101798.69;5051467;28;20573;-69
2021/12/30 08:32:47;;;;;;;27.52;16.25;;;;;;;6.46;75.98;101797.63;5050473;28;20049;-68
2021/12/30 08:35:15;;;;;;;34.80;16.48;;;;;;;6.42;76.19;101803.81;5051803;28;20105;-69
2021/12/30 08:37:42;;;;;;;32.58;18.60;;;;;;;6.42;76.20;101807.28;5047775;28;20057;-69
2021/12/30 08:40:12;;;;;;;30.90;17.15;;;;;;;6.43;75.75;101803.78;5031822;28;20053;-69
2021/12/30 08:42:38;;;;;;;35.53;17.83;;;;;;;6.47;76.00;101799.34;5031587;28;20100;-68
2021/12/30 08:45:07;;;;;;;30.52;18.95;;;;;;;6.44;75.99;101796.84;5031853;28;20546;-69
2021/12/30 08:47:34;;;;;;;32.80;20.05;;;;;;;6.49;75.84;101803.66;5031656;28;20121;-69
2021/12/30 08:50:01;;;;;;;30.92;18.48;;;;;;;6.47;76.01;101809.78;5031710;28;20300;-68
2021/12/30 08:52:29;;;;;;;30.30;18.17;;;;;;;6.56;76.15;101821.78;5031553;28;20057;-67
2021/12/30 08:54:59;;;;;;;27.83;17.77;;;;;;;6.53;76.38;101818.31;5030616;28;20053;-68
2021/12/30 08:57:26;;;;;;;29.35;17.90;;;;;;;6.55;76.17;101831.31;5031581;28;20462;-67
2021/12/30 08:59:53;;;;;;;29.75;17.77;;;;;;;6.58;76.34;101826.06;5031292;28;20049;-68
2021/12/30 09:02:20;;;;;;;29.42;17.73;;;;;;;6.63;75.89;101839.84;5031454;28;20087;-68
2021/12/30 09:04:47;;;;;;;28.38;17.30;;;;;;;6.66;76.00;101833.69;5031250;28;20132;-68
2021/12/30 09:07:18;;;;;;;30.85;18.80;;;;;;;6.65;75.98;101839.81;5031558;28;20056;-68
2021/12/30 09:09:46;;;;;;;32.28;18.23;;;;;;;6.69;75.91;101844.94;5031301;28;20049;-68
2021/12/30 09:12:17;;;;;;;31.25;18.55;;;;;;;6.72;75.99;101841.41;5030104;28;20072;-68
2021/12/30 09:14:44;;;;;;;32.10;18.92;;;;;;;6.76;75.74;101843.03;5031181;28;20042;-68
2021/12/30 09:17:13;;;;;;;34.05;17.77;;;;;;;6.69;75.76;101841.44;5031114;28;20049;-68
2021/12/30 09:19:39;;;;;;;34.00;18.38;;;;;;;6.68;76.14;101844.97;5030995;28;20049;-68
2021/12/30 09:22:06;;;;;;;28.85;17.23;;;;;;;6.75;76.14;101861.34;5030979;28;20066;-69
2021/12/30 09:24:33;;;;;;;26.80;17.83;;;;;;;6.76;75.99;101869.13;5030864;28;20045;-67
2021/12/30 09:27:01;;;;;;;26.90;17.42;;;;;;;6.78;75.87;101869.94;5033290;28;20572;-68
2021/12/30 09:29:28;;;;;;;29.17;18.80;;;;;;;6.74;76.01;101881.31;5035437;28;20411;-69
2021/12/30 09:31:54;;;;;;;33.53;19.05;;;;;;;6.78;75.64;101882.13;5040519;28;20110;-69
2021/12/30 09:34:21;;;;;;;29.70;17.77;;;;;;;6.75;76.15;101869.16;5039138;28;20099;-69
2021/12/30 09:36:48;;;;;;;32.47;19.08;;;;;;;6.81;75.86;101874.25;5040528;28;20048;-70
2021/12/30 09:39:16;;;;;;;28.90;18.67;;;;;;;6.88;75.76;101867.97;5040509;28;20049;-70
2021/12/30 09:41:45;;;;;;;31.70;19.40;;;;;;;6.95;75.40;101866.09;5039222;28;20176;-69
2021/12/30 09:44:18;;;;;;;30.80;19.63;;;;;;;6.99;75.53;101878.19;5039591;28;20050;-71
2021/12/30 09:46:46;;;;;;;31.75;19.02;;;;;;;6.98;75.52;101879.06;5039130;28;20442;-70
2021/12/30 09:49:17;;;;;;;36.70;20.25;;;;;;;7.02;75.30;101880.69;5040166;28;20068;-70
2021/12/30 09:51:45;;;;;;;35.40;19.35;;;;;;;7.01;75.62;101890.28;5035688;28;20053;-69
2021/12/30 09:54:12;;;;;;;36.38;19.65;;;;;;;6.92;75.52;101898.34;5030615;28;20041;-69
2021/12/30 09:56:39;;;;;;;30.23;19.13;;;;;;;6.86;75.94;101903.69;5030624;28;20049;-70
2021/12/30 09:59:07;;;;;;;28.83;17.83;;;;;;;6.87;76.08;101902.81;5030500;28;20049;-71
2021/12/30 10:01:37;;;;;;;31.55;18.27;;;;;;;6.95;75.90;101898.25;5029422;28;20450;-68
2021/12/30 10:04:06;;;;;;;27.27;18.15;;;;;;;6.96;75.91;101901.75;5030225;28;20092;-71
2021/12/30 10:06:34;;;;;;;31.02;19.33;;;;;;;6.98;76.00;101902.53;5038068;28;20095;-66
2021/12/30 10:09:12;;;;;;;30.83;17.73;;;;;;;6.99;76.01;101910.34;5045864;28;20111;-78
2021/12/30 10:11:44;;;;;;;25.02;16.63;;;;;;;7.02;76.02;101919.84;5038034;28;20058;-68
2021/12/30 10:14:11;;;;;;;32.80;18.65;;;;;;;6.99;75.77;101914.72;5036634;28;20411;-72
2021/12/30 10:16:38;;;;;;;27.05;17.83;;;;;;;7.02;75.97;101912.00;5037110;28;20045;-71
2021/12/30 10:19:10;;;;;;;28.55;17.88;;;;;;;6.99;75.70;101920.78;5037796;28;20099;-72
2021/12/30 10:21:41;;;;;;;27.83;17.15;;;;;;;7.01;75.69;101916.38;5039214;28;20091;-74
2021/12/30 10:24:12;;;;;;;28.40;16.95;;;;;;;6.97;75.72;101919.09;5039942;28;20045;-70
2021/12/30 10:26:49;;;;;;;28.52;17.02;;;;;;;7.05;75.63;101917.19;5015946;28;20092;-69
2021/12/30 10:29:17;;;;;;;31.02;18.23;;;;;;;7.02;75.73;101927.69;5009716;28;20567;-70
2021/12/30 10:31:44;;;;;;;52.30;21.27;;;;;;;7.01;75.90;101932.06;5009667;28;20050;-71
2021/12/30 10:34:12;;;;;;;39.03;20.08;;;;;;;7.02;75.74;101936.38;5009985;28;20050;-71
2021/12/30 10:36:43;;;;;;;32.30;18.50;;;;;;;7.09;75.59;101925.81;5027140;28;20507;-68
2021/12/30 10:39:18;;;;;;;35.67;19.40;;;;;;;7.08;75.51;101919.72;5029233;28;20057;-71
2021/12/30 10:41:47;;;;;;;37.35;23.20;;;;;;;7.14;75.36;101922.19;5029468;28;20103;-73
2021/12/30 10:44:15;;;;;;;49.67;32.70;;;;;;;7.13;75.71;101922.22;5029642;28;20107;-73
2021/12/30 10:46:41;;;;;;;59.58;39.45;;;;;;;7.22;75.34;101924.63;5029236;28;20487;-71
2021/12/30 10:49:27;;;;;;;124.25;74.18;;;;;;;7.18;75.30;101930.81;5029312;28;20111;-70
2021/12/30 10:51:57;;;;;;;63.38;41.08;;;;;;;7.15;75.89;101933.50;5027707;28;20060;-71
2021/12/30 10:54:26;;;;;;;41.08;23.13;;;;;;;7.24;75.55;101919.34;5029105;28;20136;-71
2021/12/30 10:56:58;;;;;;;39.28;24.75;;;;;;;7.26;75.46;101923.66;5012318;28;20042;-71
2021/12/30 10:59:33;;;;;;;55.47;34.15;;;;;;;7.27;75.28;101925.34;5016235;28;20444;-72
2021/12/30 11:02:12;;;;;;;38.67;24.10;;;;;;;7.43;76.29;101917.19;5014337;28;20045;-70
2021/12/30 11:04:44;;;;;;;43.83;27.08;;;;;;;8.26;73.11;101921.97;5018822;28;20136;-73
2021/12/30 11:07:19;;;;;;;47.97;33.42;;;;;;;7.92;74.11;101915.06;5020505;28;20046;-73
2021/12/30 11:09:55;;;;;;;111.07;77.53;;;;;;;7.90;74.41;101912.47;5023381;28;20389;-72
2021/12/30 11:12:34;;;;;;;57.42;34.58;;;;;;;7.87;74.13;101915.16;5019586;28;20092;-73
2021/12/30 11:15:06;;;;;;;67.80;34.47;;;;;;;7.75;74.55;101910.28;5018905;28;20045;-72
2021/12/30 11:17:35;;;;;;;83.82;39.13;;;;;;;7.76;74.18;101905.00;5020079;28;20041;-73
2021/12/30 11:20:10;;;;;;;128.18;66.45;;;;;;;7.80;74.72;101905.78;5018339;28;20049;-72
2021/12/30 11:22:39;;;;;;;191.18;109.32;;;;;;;7.73;74.58;101906.84;5019940;28;20545;-73